sensor_id;sensor_type;location;lat;lon;timestamp;temperature;humidity
13561;DHT22;6852;51.686;5.314;2023-04-25T00:01:56;7.40;99.90
13561;DHT22;6852;51.686;5.314;2023-04-25T00:04:23;7.50;1.00
13561;DHT22;6852;51.686;5.314;2023-04-25T00:06:50;7.50;1.00
13561;DHT22;6852;51.686;5.314;2023-04-25T00:09:18;7.40;1.00
13561;DHT22;6852;51.686;5.314;2023-04-25T00:11:45;7.40;1.00
13561;DHT22;6852;51.686;5.314;2023-04-25T00:14:12;7.50;1.00
13561;DHT22;6852;51.686;5.314;2023-04-25T00:16:39;7.30;99.90
13561;DHT22;6852;51.686;5.314;2023-04-25T00:19:08;7.40;1.00
13561;DHT22;6852;51.686;5.314;2023-04-25T00:21:36;7.20;1.00
13561;DHT22;6852;51.686;5.314;2023-04-25T00:24:07;7.00;1.00
13561;DHT22;6852;51.686;5.314;2023-04-25T00:26:34;6.80;1.00
13561;DHT22;6852;51.686;5.314;2023-04-25T00:29:02;6.70;1.00
13561;DHT22;6852;51.686;5.314;2023-04-25T00:31:29;6.70;1.00
13561;DHT22;6852;51.686;5.314;2023-04-25T00:33:57;6.60;98.70
13561;DHT22;6852;51.686;5.314;2023-04-25T00:36:24;6.60;99.90
13561;DHT22;6852;51.686;5.314;2023-04-25T00:38:53;6.70;99.20
13561;DHT22;6852;51.686;5.314;2023-04-25T00:41:21;6.60;1.00
13561;DHT22;6852;51.686;5.314;2023-04-25T00:43:48;6.60;99.90
13561;DHT22;6852;51.686;5.314;2023-04-25T00:46:16;6.60;99.90
13561;DHT22;6852;51.686;5.314;2023-04-25T00:48:43;6.60;99.90
13561;DHT22;6852;51.686;5.314;2023-04-25T00:51:14;6.60;1.00
13561;DHT22;6852;51.686;5.314;2023-04-25T00:53:42;6.80;99.90
13561;DHT22;6852;51.686;5.314;2023-04-25T00:56:09;6.70;1.00
13561;DHT22;6852;51.686;5.314;2023-04-25T00:58:36;6.60;1.00
13561;DHT22;6852;51.686;5.314;2023-04-25T01:01:04;6.70;1.00
13561;DHT22;6852;51.686;5.314;2023-04-25T01:03:33;6.70;1.00
13561;DHT22;6852;51.686;5.314;2023-04-25T01:06:02;6.80;1.00
13561;DHT22;6852;51.686;5.314;2023-04-25T01:08:29;6.70;99.90
13561;DHT22;6852;51.686;5.314;2023-04-25T01:10:56;6.60;76.80
13561;DHT22;6852;51.686;5.314;2023-04-25T01:13:23;6.70;1.00
13561;DHT22;6852;51.686;5.314;2023-04-25T01:15:50;6.80;1.00
13561;DHT22;6852;51.686;5.314;2023-04-25T01:18:18;6.80;99.90
13561;DHT22;6852;51.686;5.314;2023-04-25T01:20:46;6.80;99.90
13561;DHT22;6852;51.686;5.314;2023-04-25T01:23:13;6.80;1.00
13561;DHT22;6852;51.686;5.314;2023-04-25T01:25:41;6.80;99.90
13561;DHT22;6852;51.686;5.314;2023-04-25T01:28:08;6.80;99.90
13561;DHT22;6852;51.686;5.314;2023-04-25T01:30:35;6.90;99.90
13561;DHT22;6852;51.686;5.314;2023-04-25T01:33:03;7.00;1.00
13561;DHT22;6852;51.686;5.314;2023-04-25T01:35:31;7.10;1.00
13561;DHT22;6852;51.686;5.314;2023-04-25T01:37:59;7.20;1.00
13561;DHT22;6852;51.686;5.314;2023-04-25T01:40:27;7.20;99.90
13561;DHT22;6852;51.686;5.314;2023-04-25T01:42:54;7.10;1.00
13561;DHT22;6852;51.686;5.314;2023-04-25T01:45:21;7.30;1.00
13561;DHT22;6852;51.686;5.314;2023-04-25T01:47:48;7.30;1.00
13561;DHT22;6852;51.686;5.314;2023-04-25T01:50:18;7.30;99.90
13561;DHT22;6852;51.686;5.314;2023-04-25T01:52:45;7.30;99.90
13561;DHT22;6852;51.686;5.314;2023-04-25T01:55:12;7.30;1.00
13561;DHT22;6852;51.686;5.314;2023-04-25T01:57:39;7.40;99.90
13561;DHT22;6852;51.686;5.314;2023-04-25T02:00:06;7.40;1.00
13561;DHT22;6852;51.686;5.314;2023-04-25T02:02:35;7.40;99.90
13561;DHT22;6852;51.686;5.314;2023-04-25T02:05:02;7.40;1.00
13561;DHT22;6852;51.686;5.314;2023-04-25T02:07:29;7.40;1.00
13561;DHT22;6852;51.686;5.314;2023-04-25T02:09:56;7.30;1.00
13561;DHT22;6852;51.686;5.314;2023-04-25T02:12:23;7.20;1.00
13561;DHT22;6852;51.686;5.314;2023-04-25T02:14:52;7.30;1.00
13561;DHT22;6852;51.686;5.314;2023-04-25T02:17:19;7.30;1.00
13561;DHT22;6852;51.686;5.314;2023-04-25T02:19:48;7.30;1.00
13561;DHT22;6852;51.686;5.314;2023-04-25T02:22:15;7.20;1.00
13561;DHT22;6852;51.686;5.314;2023-04-25T02:24:42;7.10;1.00
13561;DHT22;6852;51.686;5.314;2023-04-25T02:27:09;7.00;1.00
13561;DHT22;6852;51.686;5.314;2023-04-25T02:29:36;7.10;1.00
13561;DHT22;6852;51.686;5.314;2023-04-25T02:32:03;7.00;90.80
13561;DHT22;6852;51.686;5.314;2023-04-25T02:34:30;6.90;99.90
13561;DHT22;6852;51.686;5.314;2023-04-25T02:36:57;6.80;1.00
13561;DHT22;6852;51.686;5.314;2023-04-25T02:39:24;6.80;1.00
13561;DHT22;6852;51.686;5.314;2023-04-25T02:41:53;6.80;99.90
13561;DHT22;6852;51.686;5.314;2023-04-25T02:44:20;6.70;1.00
13561;DHT22;6852;51.686;5.314;2023-04-25T02:46:47;6.80;1.00
13561;DHT22;6852;51.686;5.314;2023-04-25T02:49:14;6.80;1.00
13561;DHT22;6852;51.686;5.314;2023-04-25T02:51:41;6.90;99.90
13561;DHT22;6852;51.686;5.314;2023-04-25T02:54:08;6.80;1.00
13561;DHT22;6852;51.686;5.314;2023-04-25T02:56:35;6.70;1.00
13561;DHT22;6852;51.686;5.314;2023-04-25T02:59:01;6.80;99.90
13561;DHT22;6852;51.686;5.314;2023-04-25T03:01:28;6.80;99.90
13561;DHT22;6852;51.686;5.314;2023-04-25T03:03:55;6.70;99.90
13561;DHT22;6852;51.686;5.314;2023-04-25T03:06:23;6.90;1.00
13561;DHT22;6852;51.686;5.314;2023-04-25T03:08:49;7.00;1.00
13561;DHT22;6852;51.686;5.314;2023-04-25T03:11:16;7.00;1.00
13561;DHT22;6852;51.686;5.314;2023-04-25T03:13:43;7.10;1.00
13561;DHT22;6852;51.686;5.314;2023-04-25T03:16:10;7.10;22.40
13561;DHT22;6852;51.686;5.314;2023-04-25T03:18:37;7.00;1.00
13561;DHT22;6852;51.686;5.314;2023-04-25T03:21:04;7.00;99.90
13561;DHT22;6852;51.686;5.314;2023-04-25T03:23:31;7.00;1.00
13561;DHT22;6852;51.686;5.314;2023-04-25T03:25:58;7.00;1.00
13561;DHT22;6852;51.686;5.314;2023-04-25T03:28:25;7.00;99.90
13561;DHT22;6852;51.686;5.314;2023-04-25T03:30:52;7.10;99.90
13561;DHT22;6852;51.686;5.314;2023-04-25T03:33:18;7.00;1.00
13561;DHT22;6852;51.686;5.314;2023-04-25T03:35:46;6.80;99.90
13561;DHT22;6852;51.686;5.314;2023-04-25T03:38:13;6.60;99.90
13561;DHT22;6852;51.686;5.314;2023-04-25T03:40:40;6.60;99.90
13561;DHT22;6852;51.686;5.314;2023-04-25T03:43:06;6.70;99.90
13561;DHT22;6852;51.686;5.314;2023-04-25T03:45:33;6.60;99.90
13561;DHT22;6852;51.686;5.314;2023-04-25T03:48:00;6.70;99.90
13561;DHT22;6852;51.686;5.314;2023-04-25T03:50:27;6.70;99.90
13561;DHT22;6852;51.686;5.314;2023-04-25T03:52:54;6.70;99.90
13561;DHT22;6852;51.686;5.314;2023-04-25T03:55:21;6.90;99.90
13561;DHT22;6852;51.686;5.314;2023-04-25T03:57:48;6.70;99.90
13561;DHT22;6852;51.686;5.314;2023-04-25T04:00:15;6.70;99.90
13561;DHT22;6852;51.686;5.314;2023-04-25T04:02:42;6.70;99.90
13561;DHT22;6852;51.686;5.314;2023-04-25T04:05:11;6.60;99.90
13561;DHT22;6852;51.686;5.314;2023-04-25T04:07:38;6.70;99.90
13561;DHT22;6852;51.686;5.314;2023-04-25T04:10:07;6.70;99.90
13561;DHT22;6852;51.686;5.314;2023-04-25T04:12:34;6.60;99.90
13561;DHT22;6852;51.686;5.314;2023-04-25T04:15:03;6.50;99.90
13561;DHT22;6852;51.686;5.314;2023-04-25T04:17:33;6.50;99.90
13561;DHT22;6852;51.686;5.314;2023-04-25T04:20:00;6.30;99.90
13561;DHT22;6852;51.686;5.314;2023-04-25T04:22:27;6.30;99.90
13561;DHT22;6852;51.686;5.314;2023-04-25T04:24:54;6.40;99.90
13561;DHT22;6852;51.686;5.314;2023-04-25T04:27:21;6.60;99.90
13561;DHT22;6852;51.686;5.314;2023-04-25T04:29:48;6.60;99.90
13561;DHT22;6852;51.686;5.314;2023-04-25T04:32:16;6.70;99.90
13561;DHT22;6852;51.686;5.314;2023-04-25T04:34:42;6.90;99.90
13561;DHT22;6852;51.686;5.314;2023-04-25T04:37:09;7.00;99.90
13561;DHT22;6852;51.686;5.314;2023-04-25T04:39:36;7.10;99.90
13561;DHT22;6852;51.686;5.314;2023-04-25T04:42:03;7.10;99.90
13561;DHT22;6852;51.686;5.314;2023-04-25T04:44:31;7.10;99.90
13561;DHT22;6852;51.686;5.314;2023-04-25T04:47:02;7.10;99.90
13561;DHT22;6852;51.686;5.314;2023-04-25T04:49:33;7.00;99.90
13561;DHT22;6852;51.686;5.314;2023-04-25T04:52:00;7.00;1.00
13561;DHT22;6852;51.686;5.314;2023-04-25T04:54:27;7.10;1.00
13561;DHT22;6852;51.686;5.314;2023-04-25T04:56:54;7.20;1.00
13561;DHT22;6852;51.686;5.314;2023-04-25T04:59:22;7.30;1.00
13561;DHT22;6852;51.686;5.314;2023-04-25T05:01:49;7.40;99.90
13561;DHT22;6852;51.686;5.314;2023-04-25T05:04:16;7.30;99.90
13561;DHT22;6852;51.686;5.314;2023-04-25T05:06:43;7.30;99.90
13561;DHT22;6852;51.686;5.314;2023-04-25T05:09:14;7.30;99.90
13561;DHT22;6852;51.686;5.314;2023-04-25T05:11:41;7.40;1.00
13561;DHT22;6852;51.686;5.314;2023-04-25T05:14:08;7.50;1.00
13561;DHT22;6852;51.686;5.314;2023-04-25T05:16:35;7.40;1.00
13561;DHT22;6852;51.686;5.314;2023-04-25T05:19:02;7.40;1.00
13561;DHT22;6852;51.686;5.314;2023-04-25T05:21:29;7.50;1.00
13561;DHT22;6852;51.686;5.314;2023-04-25T05:23:56;7.60;99.90
13561;DHT22;6852;51.686;5.314;2023-04-25T05:26:23;7.60;99.90
13561;DHT22;6852;51.686;5.314;2023-04-25T05:28:50;7.70;33.30
13561;DHT22;6852;51.686;5.314;2023-04-25T05:31:17;7.70;43.80
13561;DHT22;6852;51.686;5.314;2023-04-25T05:33:44;7.70;26.80
13561;DHT22;6852;51.686;5.314;2023-04-25T05:36:11;7.70;1.00
13561;DHT22;6852;51.686;5.314;2023-04-25T05:38:38;7.70;13.10
13561;DHT22;6852;51.686;5.314;2023-04-25T05:41:05;7.80;1.00
13561;DHT22;6852;51.686;5.314;2023-04-25T05:43:32;7.60;1.00
13561;DHT22;6852;51.686;5.314;2023-04-25T05:45:59;7.70;1.00
13561;DHT22;6852;51.686;5.314;2023-04-25T05:48:26;7.70;1.00
13561;DHT22;6852;51.686;5.314;2023-04-25T05:50:52;7.50;99.90
13561;DHT22;6852;51.686;5.314;2023-04-25T05:53:20;7.40;99.90
13561;DHT22;6852;51.686;5.314;2023-04-25T05:55:48;7.60;99.90
13561;DHT22;6852;51.686;5.314;2023-04-25T05:58:15;7.50;99.90
13561;DHT22;6852;51.686;5.314;2023-04-25T06:00:42;7.50;1.00
13561;DHT22;6852;51.686;5.314;2023-04-25T06:03:09;7.60;99.90
13561;DHT22;6852;51.686;5.314;2023-04-25T06:05:36;7.80;99.90
13561;DHT22;6852;51.686;5.314;2023-04-25T06:08:03;7.90;99.90
13561;DHT22;6852;51.686;5.314;2023-04-25T06:10:30;8.00;99.90
13561;DHT22;6852;51.686;5.314;2023-04-25T06:12:57;7.90;36.60
13561;DHT22;6852;51.686;5.314;2023-04-25T06:15:24;8.00;1.00
13561;DHT22;6852;51.686;5.314;2023-04-25T06:17:55;8.10;1.00
13561;DHT22;6852;51.686;5.314;2023-04-25T06:20:22;8.10;1.00
13561;DHT22;6852;51.686;5.314;2023-04-25T06:22:51;8.20;42.90
13561;DHT22;6852;51.686;5.314;2023-04-25T06:25:18;8.20;1.00
13561;DHT22;6852;51.686;5.314;2023-04-25T06:27:45;8.10;1.00
13561;DHT22;6852;51.686;5.314;2023-04-25T06:30:12;8.00;1.00
13561;DHT22;6852;51.686;5.314;2023-04-25T06:32:39;8.20;1.00
13561;DHT22;6852;51.686;5.314;2023-04-25T06:35:06;8.20;1.00
13561;DHT22;6852;51.686;5.314;2023-04-25T06:37:33;8.40;1.00
13561;DHT22;6852;51.686;5.314;2023-04-25T06:40:00;8.30;1.00
13561;DHT22;6852;51.686;5.314;2023-04-25T06:42:27;8.50;1.00
13561;DHT22;6852;51.686;5.314;2023-04-25T06:44:54;8.70;1.00
13561;DHT22;6852;51.686;5.314;2023-04-25T06:47:22;8.80;1.00
13561;DHT22;6852;51.686;5.314;2023-04-25T06:49:49;8.90;1.00
13561;DHT22;6852;51.686;5.314;2023-04-25T06:52:16;9.00;1.00
13561;DHT22;6852;51.686;5.314;2023-04-25T06:54:44;9.10;1.00
13561;DHT22;6852;51.686;5.314;2023-04-25T06:57:11;8.80;1.00
13561;DHT22;6852;51.686;5.314;2023-04-25T06:59:38;8.90;1.00
13561;DHT22;6852;51.686;5.314;2023-04-25T07:02:05;8.80;1.00
13561;DHT22;6852;51.686;5.314;2023-04-25T07:04:32;9.30;1.00
13561;DHT22;6852;51.686;5.314;2023-04-25T07:06:59;9.40;1.00
13561;DHT22;6852;51.686;5.314;2023-04-25T07:09:29;9.60;1.00
13561;DHT22;6852;51.686;5.314;2023-04-25T07:11:56;9.70;1.00
13561;DHT22;6852;51.686;5.314;2023-04-25T07:14:23;9.60;1.00
13561;DHT22;6852;51.686;5.314;2023-04-25T07:16:50;10.00;1.00
13561;DHT22;6852;51.686;5.314;2023-04-25T07:19:17;10.10;1.00
13561;DHT22;6852;51.686;5.314;2023-04-25T07:21:44;10.10;1.00
13561;DHT22;6852;51.686;5.314;2023-04-25T07:24:11;9.90;1.00
13561;DHT22;6852;51.686;5.314;2023-04-25T07:26:38;9.80;1.00
13561;DHT22;6852;51.686;5.314;2023-04-25T07:29:05;10.00;1.00
13561;DHT22;6852;51.686;5.314;2023-04-25T07:31:32;9.80;1.00
13561;DHT22;6852;51.686;5.314;2023-04-25T07:33:59;9.80;1.00
13561;DHT22;6852;51.686;5.314;2023-04-25T07:36:27;9.70;1.00
13561;DHT22;6852;51.686;5.314;2023-04-25T07:38:54;9.90;1.00
13561;DHT22;6852;51.686;5.314;2023-04-25T07:41:21;9.90;1.00
13561;DHT22;6852;51.686;5.314;2023-04-25T07:43:48;10.00;1.00
13561;DHT22;6852;51.686;5.314;2023-04-25T07:46:15;10.00;1.00
13561;DHT22;6852;51.686;5.314;2023-04-25T07:48:42;9.90;1.00
13561;DHT22;6852;51.686;5.314;2023-04-25T07:51:08;9.90;1.00
13561;DHT22;6852;51.686;5.314;2023-04-25T07:53:35;9.80;1.00
13561;DHT22;6852;51.686;5.314;2023-04-25T07:56:04;9.80;1.00
13561;DHT22;6852;51.686;5.314;2023-04-25T07:58:31;9.80;1.00
13561;DHT22;6852;51.686;5.314;2023-04-25T08:00:58;9.80;1.00
13561;DHT22;6852;51.686;5.314;2023-04-25T08:03:25;9.80;1.00
13561;DHT22;6852;51.686;5.314;2023-04-25T08:05:52;9.70;1.00
13561;DHT22;6852;51.686;5.314;2023-04-25T08:08:19;9.60;1.00
13561;DHT22;6852;51.686;5.314;2023-04-25T08:10:46;9.70;1.00
13561;DHT22;6852;51.686;5.314;2023-04-25T08:13:14;9.80;1.00
13561;DHT22;6852;51.686;5.314;2023-04-25T08:15:42;9.80;1.00
13561;DHT22;6852;51.686;5.314;2023-04-25T08:18:08;9.60;1.00
13561;DHT22;6852;51.686;5.314;2023-04-25T08:20:36;9.40;1.00
13561;DHT22;6852;51.686;5.314;2023-04-25T08:23:02;9.40;1.00
13561;DHT22;6852;51.686;5.314;2023-04-25T08:25:29;9.40;1.00
13561;DHT22;6852;51.686;5.314;2023-04-25T08:27:56;9.50;1.00
13561;DHT22;6852;51.686;5.314;2023-04-25T08:30:23;9.60;1.00
13561;DHT22;6852;51.686;5.314;2023-04-25T08:32:50;9.60;1.00
13561;DHT22;6852;51.686;5.314;2023-04-25T08:35:18;9.80;1.00
13561;DHT22;6852;51.686;5.314;2023-04-25T08:37:44;9.70;1.00
13561;DHT22;6852;51.686;5.314;2023-04-25T08:40:14;10.10;1.00
13561;DHT22;6852;51.686;5.314;2023-04-25T08:42:41;10.70;1.00
13561;DHT22;6852;51.686;5.314;2023-04-25T08:45:09;10.60;1.00
13561;DHT22;6852;51.686;5.314;2023-04-25T08:47:38;11.20;1.00
13561;DHT22;6852;51.686;5.314;2023-04-25T08:50:06;11.20;1.00
13561;DHT22;6852;51.686;5.314;2023-04-25T08:52:39;11.10;1.00
13561;DHT22;6852;51.686;5.314;2023-04-25T08:55:09;11.20;1.00
13561;DHT22;6852;51.686;5.314;2023-04-25T08:57:38;11.30;1.00
13561;DHT22;6852;51.686;5.314;2023-04-25T09:00:06;11.20;1.00
13561;DHT22;6852;51.686;5.314;2023-04-25T09:02:34;11.10;1.00
13561;DHT22;6852;51.686;5.314;2023-04-25T09:05:03;11.20;1.00
13561;DHT22;6852;51.686;5.314;2023-04-25T09:07:30;11.20;1.00
13561;DHT22;6852;51.686;5.314;2023-04-25T09:09:57;10.90;1.00
13561;DHT22;6852;51.686;5.314;2023-04-25T09:12:27;11.00;1.00
13561;DHT22;6852;51.686;5.314;2023-04-25T09:15:06;10.90;1.00
13561;DHT22;6852;51.686;5.314;2023-04-25T09:17:33;10.70;1.00
13561;DHT22;6852;51.686;5.314;2023-04-25T09:20:12;10.90;1.00
13561;DHT22;6852;51.686;5.314;2023-04-25T09:22:39;10.60;1.00
13561;DHT22;6852;51.686;5.314;2023-04-25T09:25:11;10.70;1.00
13561;DHT22;6852;51.686;5.314;2023-04-25T09:27:54;10.90;1.00
13561;DHT22;6852;51.686;5.314;2023-04-25T09:30:30;11.30;1.00
13561;DHT22;6852;51.686;5.314;2023-04-25T09:33:05;11.80;1.00
13561;DHT22;6852;51.686;5.314;2023-04-25T09:36:02;12.00;1.00
13561;DHT22;6852;51.686;5.314;2023-04-25T09:38:30;12.30;1.00
13561;DHT22;6852;51.686;5.314;2023-04-25T09:40:58;12.20;1.00
13561;DHT22;6852;51.686;5.314;2023-04-25T09:43:26;12.20;1.00
13561;DHT22;6852;51.686;5.314;2023-04-25T09:45:54;11.90;1.00
13561;DHT22;6852;51.686;5.314;2023-04-25T09:48:26;12.00;1.00
13561;DHT22;6852;51.686;5.314;2023-04-25T09:51:10;12.00;1.00
13561;DHT22;6852;51.686;5.314;2023-04-25T09:53:42;11.90;1.00
13561;DHT22;6852;51.686;5.314;2023-04-25T09:56:10;12.00;1.00
13561;DHT22;6852;51.686;5.314;2023-04-25T09:58:40;12.60;1.00
13561;DHT22;6852;51.686;5.314;2023-04-25T10:01:08;12.90;1.00
13561;DHT22;6852;51.686;5.314;2023-04-25T10:03:40;12.50;1.00
13561;DHT22;6852;51.686;5.314;2023-04-25T10:06:14;12.40;1.00
13561;DHT22;6852;51.686;5.314;2023-04-25T10:08:44;12.70;1.00
13561;DHT22;6852;51.686;5.314;2023-04-25T10:11:12;12.80;1.00
13561;DHT22;6852;51.686;5.314;2023-04-25T10:13:43;12.90;1.00
13561;DHT22;6852;51.686;5.314;2023-04-25T10:16:10;12.40;1.00
13561;DHT22;6852;51.686;5.314;2023-04-25T10:18:37;12.30;1.00
13561;DHT22;6852;51.686;5.314;2023-04-25T10:21:05;11.90;1.00
13561;DHT22;6852;51.686;5.314;2023-04-25T10:23:33;11.90;1.00
13561;DHT22;6852;51.686;5.314;2023-04-25T10:26:03;11.50;1.00
13561;DHT22;6852;51.686;5.314;2023-04-25T10:31:24;11.20;1.00
13561;DHT22;6852;51.686;5.314;2023-04-25T10:33:51;11.00;1.00
13561;DHT22;6852;51.686;5.314;2023-04-25T10:36:23;10.80;1.00
13561;DHT22;6852;51.686;5.314;2023-04-25T10:38:51;10.40;1.00
13561;DHT22;6852;51.686;5.314;2023-04-25T10:41:20;10.50;1.00
13561;DHT22;6852;51.686;5.314;2023-04-25T10:43:48;10.20;1.00
13561;DHT22;6852;51.686;5.314;2023-04-25T10:46:25;10.10;1.00
13561;DHT22;6852;51.686;5.314;2023-04-25T10:49:01;10.20;1.00
13561;DHT22;6852;51.686;5.314;2023-04-25T10:51:32;9.80;1.00
13561;DHT22;6852;51.686;5.314;2023-04-25T10:54:22;9.80;1.00
13561;DHT22;6852;51.686;5.314;2023-04-25T10:56:51;10.00;1.00
13561;DHT22;6852;51.686;5.314;2023-04-25T10:59:19;10.00;1.00
13561;DHT22;6852;51.686;5.314;2023-04-25T11:01:52;9.90;1.00
13561;DHT22;6852;51.686;5.314;2023-04-25T11:04:29;9.80;1.00
13561;DHT22;6852;51.686;5.314;2023-04-25T11:07:13;9.90;1.00
13561;DHT22;6852;51.686;5.314;2023-04-25T11:09:42;10.10;1.00
13561;DHT22;6852;51.686;5.314;2023-04-25T11:12:12;10.50;1.00
13561;DHT22;6852;51.686;5.314;2023-04-25T11:14:39;10.90;1.00
13561;DHT22;6852;51.686;5.314;2023-04-25T11:17:11;10.90;1.00
13561;DHT22;6852;51.686;5.314;2023-04-25T11:19:38;10.90;1.00
13561;DHT22;6852;51.686;5.314;2023-04-25T11:22:05;10.90;1.00
13561;DHT22;6852;51.686;5.314;2023-04-25T11:24:34;11.40;1.00
13561;DHT22;6852;51.686;5.314;2023-04-25T11:27:02;11.60;1.00
13561;DHT22;6852;51.686;5.314;2023-04-25T11:29:31;11.90;1.00
13561;DHT22;6852;51.686;5.314;2023-04-25T11:31:59;12.20;1.00
13561;DHT22;6852;51.686;5.314;2023-04-25T11:34:32;12.30;1.00
13561;DHT22;6852;51.686;5.314;2023-04-25T11:37:01;12.40;1.00
13561;DHT22;6852;51.686;5.314;2023-04-25T11:39:28;12.50;1.00
13561;DHT22;6852;51.686;5.314;2023-04-25T11:41:56;12.70;1.00
13561;DHT22;6852;51.686;5.314;2023-04-25T11:44:23;12.60;1.00
13561;DHT22;6852;51.686;5.314;2023-04-25T11:46:50;12.40;1.00
13561;DHT22;6852;51.686;5.314;2023-04-25T11:49:16;11.90;99.90
13561;DHT22;6852;51.686;5.314;2023-04-25T11:51:48;12.60;99.90
13561;DHT22;6852;51.686;5.314;2023-04-25T11:54:16;13.10;99.90
13561;DHT22;6852;51.686;5.314;2023-04-25T11:56:44;12.60;99.90
13561;DHT22;6852;51.686;5.314;2023-04-25T11:59:11;12.40;99.90
13561;DHT22;6852;51.686;5.314;2023-04-25T12:01:48;12.30;99.90
13561;DHT22;6852;51.686;5.314;2023-04-25T12:06:44;12.70;99.90
13561;DHT22;6852;51.686;5.314;2023-04-25T12:09:14;13.10;99.90
13561;DHT22;6852;51.686;5.314;2023-04-25T12:11:52;12.90;99.90
13561;DHT22;6852;51.686;5.314;2023-04-25T12:14:24;13.40;99.90
13561;DHT22;6852;51.686;5.314;2023-04-25T12:16:58;13.60;99.90
13561;DHT22;6852;51.686;5.314;2023-04-25T12:19:26;13.60;99.90
13561;DHT22;6852;51.686;5.314;2023-04-25T12:21:58;13.50;99.90
13561;DHT22;6852;51.686;5.314;2023-04-25T12:24:26;13.60;1.00
13561;DHT22;6852;51.686;5.314;2023-04-25T12:27:04;12.30;1.00
13561;DHT22;6852;51.686;5.314;2023-04-25T12:29:32;12.10;1.00
13561;DHT22;6852;51.686;5.314;2023-04-25T12:32:15;12.20;1.00
13561;DHT22;6852;51.686;5.314;2023-04-25T12:34:42;12.10;1.00
13561;DHT22;6852;51.686;5.314;2023-04-25T12:37:09;12.00;1.00
13561;DHT22;6852;51.686;5.314;2023-04-25T12:39:37;12.10;1.00
13561;DHT22;6852;51.686;5.314;2023-04-25T12:42:04;11.50;1.00
13561;DHT22;6852;51.686;5.314;2023-04-25T12:44:34;11.50;1.00
13561;DHT22;6852;51.686;5.314;2023-04-25T12:47:01;11.30;1.00
13561;DHT22;6852;51.686;5.314;2023-04-25T12:49:30;11.50;1.00
13561;DHT22;6852;51.686;5.314;2023-04-25T12:51:57;11.40;1.00
13561;DHT22;6852;51.686;5.314;2023-04-25T12:54:24;11.00;1.00
13561;DHT22;6852;51.686;5.314;2023-04-25T12:56:52;11.30;1.00
13561;DHT22;6852;51.686;5.314;2023-04-25T12:59:19;11.20;1.00
13561;DHT22;6852;51.686;5.314;2023-04-25T13:01:47;11.50;1.00
13561;DHT22;6852;51.686;5.314;2023-04-25T13:04:14;11.90;1.00
13561;DHT22;6852;51.686;5.314;2023-04-25T13:06:42;12.50;1.00
13561;DHT22;6852;51.686;5.314;2023-04-25T13:09:09;12.30;1.00
13561;DHT22;6852;51.686;5.314;2023-04-25T13:11:36;12.60;1.00
13561;DHT22;6852;51.686;5.314;2023-04-25T13:14:04;13.10;1.00
13561;DHT22;6852;51.686;5.314;2023-04-25T13:16:31;13.00;1.00
13561;DHT22;6852;51.686;5.314;2023-04-25T13:18:58;12.90;1.00
13561;DHT22;6852;51.686;5.314;2023-04-25T13:21:25;12.40;1.00
13561;DHT22;6852;51.686;5.314;2023-04-25T13:23:53;12.10;1.00
13561;DHT22;6852;51.686;5.314;2023-04-25T13:26:21;11.40;1.00
13561;DHT22;6852;51.686;5.314;2023-04-25T13:28:47;11.40;1.00
13561;DHT22;6852;51.686;5.314;2023-04-25T13:31:14;11.20;1.00
13561;DHT22;6852;51.686;5.314;2023-04-25T13:33:42;11.50;1.00
13561;DHT22;6852;51.686;5.314;2023-04-25T13:36:09;11.40;1.00
13561;DHT22;6852;51.686;5.314;2023-04-25T13:38:36;11.40;1.00
13561;DHT22;6852;51.686;5.314;2023-04-25T13:41:03;11.70;1.00
13561;DHT22;6852;51.686;5.314;2023-04-25T13:43:32;11.50;1.00
13561;DHT22;6852;51.686;5.314;2023-04-25T13:45:59;11.00;1.00
13561;DHT22;6852;51.686;5.314;2023-04-25T13:48:26;11.70;1.00
13561;DHT22;6852;51.686;5.314;2023-04-25T13:50:53;11.70;1.00
13561;DHT22;6852;51.686;5.314;2023-04-25T13:53:20;12.00;1.00
13561;DHT22;6852;51.686;5.314;2023-04-25T13:55:47;12.50;1.00
13561;DHT22;6852;51.686;5.314;2023-04-25T13:58:14;12.20;1.00
13561;DHT22;6852;51.686;5.314;2023-04-25T14:00:41;11.80;1.00
13561;DHT22;6852;51.686;5.314;2023-04-25T14:03:10;11.60;1.00
13561;DHT22;6852;51.686;5.314;2023-04-25T14:05:37;11.80;1.00
13561;DHT22;6852;51.686;5.314;2023-04-25T14:08:08;12.10;1.00
13561;DHT22;6852;51.686;5.314;2023-04-25T14:10:36;12.90;1.00
13561;DHT22;6852;51.686;5.314;2023-04-25T14:13:04;12.80;1.00
13561;DHT22;6852;51.686;5.314;2023-04-25T14:15:33;12.80;1.00
13561;DHT22;6852;51.686;5.314;2023-04-25T14:18:01;12.80;1.00
13561;DHT22;6852;51.686;5.314;2023-04-25T14:20:29;12.50;1.00
13561;DHT22;6852;51.686;5.314;2023-04-25T14:22:56;12.40;1.00
13561;DHT22;6852;51.686;5.314;2023-04-25T14:25:25;11.90;1.00
13561;DHT22;6852;51.686;5.314;2023-04-25T14:27:52;12.20;1.00
13561;DHT22;6852;51.686;5.314;2023-04-25T14:30:20;12.80;1.00
13561;DHT22;6852;51.686;5.314;2023-04-25T14:32:48;12.90;1.00
13561;DHT22;6852;51.686;5.314;2023-04-25T14:35:16;13.10;1.00
13561;DHT22;6852;51.686;5.314;2023-04-25T14:37:43;13.10;1.00
13561;DHT22;6852;51.686;5.314;2023-04-25T14:40:11;12.90;1.00
13561;DHT22;6852;51.686;5.314;2023-04-25T14:42:40;12.20;1.00
13561;DHT22;6852;51.686;5.314;2023-04-25T14:45:08;12.50;99.90
13561;DHT22;6852;51.686;5.314;2023-04-25T14:47:36;12.40;99.90
13561;DHT22;6852;51.686;5.314;2023-04-25T14:50:04;12.70;99.90
13561;DHT22;6852;51.686;5.314;2023-04-25T14:52:31;12.80;99.90
13561;DHT22;6852;51.686;5.314;2023-04-25T14:54:58;13.00;99.90
13561;DHT22;6852;51.686;5.314;2023-04-25T14:57:27;13.10;99.90
13561;DHT22;6852;51.686;5.314;2023-04-25T14:59:53;12.90;99.90
13561;DHT22;6852;51.686;5.314;2023-04-25T15:02:20;12.70;99.90
13561;DHT22;6852;51.686;5.314;2023-04-25T15:04:48;12.60;99.90
13561;DHT22;6852;51.686;5.314;2023-04-25T15:07:15;12.40;99.90
13561;DHT22;6852;51.686;5.314;2023-04-25T15:09:44;12.30;99.90
13561;DHT22;6852;51.686;5.314;2023-04-25T15:12:11;12.30;99.90
13561;DHT22;6852;51.686;5.314;2023-04-25T15:14:38;11.90;99.90
13561;DHT22;6852;51.686;5.314;2023-04-25T15:17:05;11.90;99.90
13561;DHT22;6852;51.686;5.314;2023-04-25T15:19:32;12.10;99.90
13561;DHT22;6852;51.686;5.314;2023-04-25T15:21:59;12.00;99.90
13561;DHT22;6852;51.686;5.314;2023-04-25T15:24:29;11.90;99.90
13561;DHT22;6852;51.686;5.314;2023-04-25T15:26:56;11.80;99.90
13561;DHT22;6852;51.686;5.314;2023-04-25T15:29:23;11.90;99.90
13561;DHT22;6852;51.686;5.314;2023-04-25T15:31:51;12.00;99.90
13561;DHT22;6852;51.686;5.314;2023-04-25T15:34:18;11.80;99.90
13561;DHT22;6852;51.686;5.314;2023-04-25T15:36:45;11.70;99.90
13561;DHT22;6852;51.686;5.314;2023-04-25T15:39:12;11.50;99.90
13561;DHT22;6852;51.686;5.314;2023-04-25T15:41:39;11.70;99.90
13561;DHT22;6852;51.686;5.314;2023-04-25T15:44:06;11.70;99.90
13561;DHT22;6852;51.686;5.314;2023-04-25T15:46:33;11.60;99.90
13561;DHT22;6852;51.686;5.314;2023-04-25T15:49:00;11.60;99.90
13561;DHT22;6852;51.686;5.314;2023-04-25T15:51:28;11.90;1.00
13561;DHT22;6852;51.686;5.314;2023-04-25T15:53:55;12.00;99.90
13561;DHT22;6852;51.686;5.314;2023-04-25T15:56:22;12.00;99.90
13561;DHT22;6852;51.686;5.314;2023-04-25T15:58:49;12.10;99.90
13561;DHT22;6852;51.686;5.314;2023-04-25T16:01:17;12.00;99.90
13561;DHT22;6852;51.686;5.314;2023-04-25T16:03:44;11.60;99.90
13561;DHT22;6852;51.686;5.314;2023-04-25T16:06:11;11.60;1.00
13561;DHT22;6852;51.686;5.314;2023-04-25T16:08:38;11.70;99.90
13561;DHT22;6852;51.686;5.314;2023-04-25T16:11:05;11.80;99.90
13561;DHT22;6852;51.686;5.314;2023-04-25T16:13:32;11.40;99.90
13561;DHT22;6852;51.686;5.314;2023-04-25T16:16:00;11.50;99.90